createdAt,value
2023-02-26T00:00:49.188Z,45.70
2023-02-26T00:03:22.295Z,45.70
2023-02-26T00:06:00.040Z,45.60
2023-02-26T00:08:33.292Z,45.80
2023-02-26T00:11:07.604Z,45.70
2023-02-26T00:13:42.014Z,45.80
2023-02-26T00:16:22.376Z,45.50
2023-02-26T00:18:55.776Z,45.80
2023-02-26T00:21:31.686Z,45.80
2023-02-26T00:24:06.693Z,45.90
2023-02-26T00:26:39.777Z,45.90
2023-02-26T00:29:13.129Z,45.90
2023-02-26T00:31:46.719Z,45.90
2023-02-26T00:34:20.677Z,46.00
2023-02-26T00:37:04.165Z,45.90
2023-02-26T00:39:41.722Z,45.90
2023-02-26T00:42:15.550Z,45.90
2023-02-26T00:44:49.026Z,45.80
2023-02-26T00:47:25.755Z,45.70
2023-02-26T00:50:05.823Z,45.80
2023-02-26T00:52:44.417Z,45.60
2023-02-26T00:55:17.788Z,45.90
2023-02-26T00:57:50.978Z,46.00
2023-02-26T01:00:24.264Z,46.10
2023-02-26T01:02:57.545Z,46.10
2023-02-26T01:05:31.003Z,46.10
2023-02-26T01:08:08.152Z,46.10
2023-02-26T01:10:42.365Z,46.10
2023-02-26T01:13:15.705Z,46.20
2023-02-26T01:15:49.893Z,46.20
2023-02-26T01:18:25.246Z,46.20
2023-02-26T01:21:00.090Z,46.20
2023-02-26T01:23:36.827Z,46.20
2023-02-26T01:26:13.612Z,46.20
2023-02-26T01:28:47.126Z,46.30
2023-02-26T01:31:27.416Z,46.30
2023-02-26T01:34:03.997Z,46.30
2023-02-26T01:36:42.432Z,46.40
2023-02-26T01:39:19.504Z,46.40
2023-02-26T01:41:55.389Z,46.40
2023-02-26T01:44:31.562Z,46.50
2023-02-26T01:47:17.186Z,46.50
2023-02-26T01:49:50.586Z,46.50
2023-02-26T01:52:57.643Z,46.40
2023-02-26T01:55:32.171Z,46.40
2023-02-26T01:58:05.928Z,46.40
2023-02-26T02:00:39.449Z,46.50
2023-02-26T02:03:12.700Z,46.40
2023-02-26T02:05:48.360Z,46.40
2023-02-26T02:08:22.173Z,46.30
2023-02-26T02:10:56.721Z,46.40
2023-02-26T02:13:36.440Z,46.50
2023-02-26T02:16:18.082Z,46.50
2023-02-26T02:18:54.660Z,46.50
2023-02-26T02:21:39.379Z,46.50
2023-02-26T02:24:16.661Z,46.50
2023-02-26T02:27:04.017Z,46.50
2023-02-26T02:30:03.359Z,46.40
2023-02-26T02:32:40.589Z,46.40
2023-02-26T02:35:17.026Z,46.40
2023-02-26T02:37:55.573Z,46.40
2023-02-26T02:40:30.798Z,46.30
2023-02-26T02:43:05.802Z,46.30
2023-02-26T02:45:42.385Z,46.30
2023-02-26T02:48:18.909Z,46.30
2023-02-26T02:50:56.755Z,46.40
2023-02-26T02:53:31.572Z,46.40
2023-02-26T02:56:07.084Z,46.40
2023-02-26T02:58:42.994Z,46.50
2023-02-26T03:01:17.611Z,46.40
2023-02-26T03:03:55.048Z,46.40
2023-02-26T03:06:29.257Z,46.50
2023-02-26T03:09:04.272Z,46.50
2023-02-26T03:11:38.048Z,46.50
2023-02-26T03:14:12.247Z,46.50
2023-02-26T03:16:55.822Z,46.40
2023-02-26T03:19:32.634Z,46.40
2023-02-26T03:22:09.982Z,46.40
2023-02-26T03:25:02.125Z,46.40
2023-02-26T03:27:37.843Z,46.40
2023-02-26T03:30:16.028Z,46.40
2023-02-26T03:32:57.991Z,46.30
2023-02-26T03:35:37.069Z,46.30
2023-02-26T03:38:12.734Z,46.30
2023-02-26T03:40:48.675Z,46.30
2023-02-26T03:43:24.383Z,46.40
2023-02-26T03:45:59.545Z,46.40
2023-02-26T03:48:33.216Z,46.40
2023-02-26T03:51:10.700Z,46.40
2023-02-26T03:53:48.089Z,46.40
2023-02-26T03:56:27.392Z,46.40
2023-02-26T03:59:13.087Z,46.40
2023-02-26T04:01:54.505Z,46.50
2023-02-26T04:04:31.512Z,46.40
2023-02-26T04:07:06.184Z,46.40
2023-02-26T04:09:41.527Z,46.40
2023-02-26T04:12:14.921Z,46.30
2023-02-26T04:14:53.094Z,46.30
2023-02-26T04:17:26.339Z,46.30
2023-02-26T04:19:59.432Z,46.30
2023-02-26T04:22:33.940Z,46.30
2023-02-26T04:25:08.032Z,46.40
2023-02-26T04:27:42.748Z,46.40
2023-02-26T04:30:15.966Z,46.40
2023-02-26T04:32:49.108Z,46.40
2023-02-26T04:35:22.218Z,46.40
2023-02-26T04:37:56.690Z,46.50
2023-02-26T04:40:29.960Z,46.40
2023-02-26T04:43:03.141Z,46.40
2023-02-26T04:45:40.966Z,46.50
2023-02-26T04:48:14.432Z,46.50
2023-02-26T04:50:48.561Z,46.50
2023-02-26T04:53:23.144Z,46.40
2023-02-26T04:55:56.234Z,46.40
2023-02-26T04:58:29.329Z,46.30
2023-02-26T05:01:06.719Z,46.30
2023-02-26T05:03:39.924Z,46.30
2023-02-26T05:06:13.161Z,46.30
2023-02-26T05:08:47.640Z,46.30
2023-02-26T05:11:20.734Z,46.30
2023-02-26T05:13:53.901Z,46.30
2023-02-26T05:16:27.386Z,46.30
2023-02-26T05:19:00.746Z,46.40
2023-02-26T05:21:34.410Z,46.30
2023-02-26T05:24:09.289Z,46.40
2023-02-26T05:26:42.422Z,46.30
2023-02-26T05:29:15.578Z,46.40
2023-02-26T05:31:50.602Z,46.40
2023-02-26T05:34:23.709Z,46.40
2023-02-26T05:36:56.835Z,46.40
2023-02-26T05:39:31.285Z,46.50
2023-02-26T05:42:04.415Z,46.40
2023-02-26T05:44:37.475Z,46.30
2023-02-26T05:47:10.575Z,46.30
2023-02-26T05:49:43.710Z,46.30
2023-02-26T05:52:16.940Z,46.20
2023-02-26T05:54:51.402Z,46.20
2023-02-26T05:57:24.779Z,46.30
2023-02-26T05:59:57.842Z,46.20
2023-02-26T06:02:30.930Z,46.20
2023-02-26T06:05:04.379Z,46.20
2023-02-26T06:07:37.646Z,46.30
2023-02-26T06:10:13.445Z,46.30
2023-02-26T06:12:46.707Z,46.30
2023-02-26T06:15:19.943Z,46.30
2023-02-26T06:17:53.045Z,46.40
2023-02-26T06:20:26.136Z,46.30
2023-02-26T06:22:59.230Z,46.30
2023-02-26T06:25:33.684Z,46.30
2023-02-26T06:28:06.788Z,46.40
2023-02-26T06:30:39.908Z,46.40
2023-02-26T06:33:13.023Z,46.30
2023-02-26T06:35:46.278Z,46.20
2023-02-26T06:38:19.758Z,46.20
2023-02-26T06:40:54.211Z,46.20
2023-02-26T06:43:27.290Z,46.10
2023-02-26T06:46:00.622Z,46.10
2023-02-26T06:48:33.789Z,46.20
2023-02-26T06:51:07.641Z,46.20
2023-02-26T06:53:40.803Z,46.20
2023-02-26T06:56:15.286Z,46.30
2023-02-26T06:58:48.382Z,46.30
2023-02-26T07:01:21.518Z,46.40
2023-02-26T07:03:54.634Z,46.30
2023-02-26T07:06:28.387Z,46.30
2023-02-26T07:09:01.752Z,46.30
2023-02-26T07:11:36.309Z,46.40
2023-02-26T07:14:09.405Z,46.40
2023-02-26T07:16:42.520Z,46.40
2023-02-26T07:19:15.612Z,46.30
2023-02-26T07:21:48.970Z,46.30
2023-02-26T07:24:22.076Z,46.30
2023-02-26T07:26:56.628Z,46.20
2023-02-26T07:29:29.751Z,46.20
2023-02-26T07:32:02.970Z,46.20
2023-02-26T07:34:36.246Z,46.20
2023-02-26T07:37:09.448Z,46.30
2023-02-26T07:39:42.564Z,46.30
2023-02-26T07:42:17.261Z,46.40
2023-02-26T07:44:50.371Z,46.40
2023-02-26T07:47:23.454Z,46.40
2023-02-26T07:49:56.742Z,46.40
2023-02-26T07:52:29.926Z,46.40
2023-02-26T07:55:03.003Z,46.40
2023-02-26T07:57:37.605Z,46.40
2023-02-26T08:00:11.369Z,46.40
2023-02-26T08:02:47.783Z,46.50
2023-02-26T08:05:20.912Z,46.40
2023-02-26T08:07:54.115Z,46.30
2023-02-26T08:10:27.324Z,46.30
2023-02-26T08:13:01.802Z,46.30
2023-02-26T08:15:34.973Z,46.30
2023-02-26T08:18:08.111Z,46.30
2023-02-26T08:20:41.240Z,46.30
2023-02-26T08:23:14.360Z,46.50
2023-02-26T08:25:47.497Z,46.60
2023-02-26T08:28:22.044Z,46.60
2023-02-26T08:30:55.662Z,46.70
2023-02-26T08:33:29.220Z,46.40
2023-02-26T08:36:02.286Z,46.40
2023-02-26T08:38:35.465Z,46.40
2023-02-26T08:41:08.564Z,46.50
2023-02-26T08:43:43.031Z,46.60
2023-02-26T08:46:16.177Z,47.00
2023-02-26T08:48:49.287Z,47.00
2023-02-26T08:51:22.918Z,47.10
2023-02-26T08:53:56.833Z,47.10
2023-02-26T08:56:30.036Z,47.60
2023-02-26T08:59:04.547Z,48.00
2023-02-26T09:01:37.641Z,48.80
2023-02-26T09:04:10.734Z,49.20
2023-02-26T09:06:43.849Z,48.90
2023-02-26T09:09:17.008Z,48.80
2023-02-26T09:11:50.236Z,49.50
2023-02-26T09:14:24.823Z,49.00
2023-02-26T09:16:57.934Z,49.30
2023-02-26T09:19:31.078Z,49.90
2023-02-26T09:22:06.085Z,49.50
2023-02-26T09:24:39.413Z,49.10
2023-02-26T09:27:12.569Z,48.70
2023-02-26T09:29:47.050Z,48.30
2023-02-26T09:32:20.216Z,48.20
2023-02-26T09:34:53.816Z,48.00
2023-02-26T09:37:26.864Z,47.70
2023-02-26T09:39:59.957Z,47.30
2023-02-26T09:42:41.677Z,47.20
2023-02-26T09:45:22.553Z,46.90
2023-02-26T09:47:57.730Z,46.60
2023-02-26T09:50:35.722Z,46.80
2023-02-26T09:53:13.774Z,42.60
2023-02-26T09:55:47.910Z,36.20
2023-02-26T09:58:23.743Z,32.30
2023-02-26T10:01:01.759Z,33.00
2023-02-26T10:03:41.695Z,36.00
2023-02-26T10:06:24.798Z,36.40
2023-02-26T10:09:02.686Z,38.30
2023-02-26T10:11:39.887Z,38.20
2023-02-26T10:14:16.194Z,37.80
2023-02-26T10:16:53.056Z,38.70
2023-02-26T10:19:28.512Z,38.90
2023-02-26T10:22:04.414Z,38.80
2023-02-26T10:24:40.010Z,38.30
2023-02-26T10:27:16.170Z,38.60
2023-02-26T10:29:51.423Z,38.70
2023-02-26T10:32:27.509Z,38.80
2023-02-26T10:35:01.828Z,39.20
2023-02-26T10:37:39.988Z,40.60
2023-02-26T10:40:16.059Z,40.70
2023-02-26T10:42:51.979Z,40.70
2023-02-26T10:45:29.806Z,40.50
2023-02-26T10:48:12.060Z,40.80
2023-02-26T10:50:49.199Z,40.50
2023-02-26T10:53:23.083Z,39.40
2023-02-26T10:55:58.277Z,39.30
2023-02-26T10:58:31.320Z,40.20
2023-02-26T11:01:08.353Z,40.50
2023-02-26T11:03:44.133Z,41.50
2023-02-26T11:06:20.285Z,41.40
2023-02-26T11:08:54.337Z,41.60
2023-02-26T11:11:37.616Z,40.80
2023-02-26T11:14:11.462Z,41.50
2023-02-26T11:16:47.730Z,41.20
2023-02-26T11:19:30.133Z,41.50
2023-02-26T11:22:04.242Z,41.60
2023-02-26T11:24:40.270Z,41.90
2023-02-26T11:27:15.125Z,41.90
2023-02-26T11:29:49.598Z,41.90
2023-02-26T11:32:23.768Z,42.00
2023-02-26T11:34:58.502Z,42.10
2023-02-26T11:37:32.875Z,42.10
2023-02-26T11:40:10.884Z,42.10
2023-02-26T11:42:46.270Z,41.90
2023-02-26T11:45:20.290Z,41.90
2023-02-26T11:48:02.214Z,41.90
2023-02-26T11:50:43.214Z,41.70
2023-02-26T11:53:18.462Z,41.50
2023-02-26T11:55:53.276Z,41.60
2023-02-26T11:58:26.508Z,41.50
2023-02-26T12:01:00.528Z,41.60
2023-02-26T12:03:34.565Z,41.90
2023-02-26T12:06:16.275Z,42.10
2023-02-26T12:08:49.604Z,42.20
2023-02-26T12:11:35.299Z,41.90
2023-02-26T12:14:24.358Z,41.60
2023-02-26T12:17:03.994Z,41.40
2023-02-26T12:19:41.661Z,41.40
2023-02-26T12:22:23.348Z,41.30
2023-02-26T12:25:15.211Z,41.70
2023-02-26T12:27:56.611Z,41.60
2023-02-26T12:30:38.784Z,41.70
2023-02-26T12:33:19.189Z,42.00
2023-02-26T12:35:57.681Z,42.70
2023-02-26T12:38:36.375Z,43.50
2023-02-26T12:41:24.703Z,43.30
2023-02-26T12:44:02.619Z,43.20
2023-02-26T12:46:42.354Z,43.40
2023-02-26T12:49:23.606Z,43.50
2023-02-26T12:52:17.436Z,43.90
2023-02-26T12:55:02.289Z,44.10
2023-02-26T12:57:53.355Z,44.00
2023-02-26T13:00:44.068Z,44.00
2023-02-26T13:03:50.180Z,44.10
2023-02-26T13:06:31.953Z,44.10
2023-02-26T13:09:08.802Z,44.50
2023-02-26T13:11:48.448Z,44.50
2023-02-26T13:14:31.445Z,44.60
2023-02-26T13:17:08.472Z,44.60
2023-02-26T13:19:44.728Z,44.70
2023-02-26T13:22:21.490Z,44.80
2023-02-26T13:24:56.203Z,44.80
2023-02-26T13:27:33.225Z,44.70
2023-02-26T13:30:15.714Z,44.80
2023-02-26T13:32:49.964Z,44.80
2023-02-26T13:35:26.683Z,44.80
2023-02-26T13:38:01.150Z,44.80
2023-02-26T13:40:42.205Z,44.80
2023-02-26T13:43:23.596Z,45.00
2023-02-26T13:46:00.919Z,44.80
2023-02-26T13:48:41.214Z,44.80
2023-02-26T13:51:15.681Z,44.80
2023-02-26T13:53:56.539Z,45.30
2023-02-26T13:56:49.493Z,44.80
2023-02-26T13:59:30.944Z,44.80
2023-02-26T14:02:24.159Z,45.10
2023-02-26T14:04:58.972Z,45.50
2023-02-26T14:07:48.785Z,45.50
2023-02-26T14:10:26.289Z,45.50
2023-02-26T14:13:04.020Z,45.50
2023-02-26T14:15:50.968Z,45.30
2023-02-26T14:18:31.429Z,45.20
2023-02-26T14:21:19.365Z,45.10
2023-02-26T14:23:53.867Z,45.00
2023-02-26T14:26:28.951Z,45.00
2023-02-26T14:29:09.788Z,45.00
2023-02-26T14:31:56.207Z,44.80
2023-02-26T14:34:31.075Z,44.80
2023-02-26T14:37:07.147Z,44.80
2023-02-26T14:39:42.157Z,44.70
2023-02-26T14:42:18.185Z,44.60
2023-02-26T14:44:53.513Z,44.50
2023-02-26T14:47:28.038Z,44.50
2023-02-26T14:50:01.315Z,44.20
2023-02-26T14:52:44.316Z,44.30
2023-02-26T14:55:36.716Z,44.30
2023-02-26T14:58:16.475Z,44.30
2023-02-26T15:00:53.680Z,44.30
2023-02-26T15:03:47.325Z,44.20
2023-02-26T15:06:33.702Z,44.20
2023-02-26T15:09:12.133Z,44.20
2023-02-26T15:11:54.595Z,44.60
2023-02-26T15:14:36.670Z,44.50
2023-02-26T15:17:17.191Z,44.70
2023-02-26T15:20:02.262Z,44.90
2023-02-26T15:22:48.244Z,44.80
2023-02-26T15:25:25.844Z,44.50
2023-02-26T15:27:59.285Z,44.60
2023-02-26T15:30:33.242Z,44.60
2023-02-26T15:33:08.790Z,44.80
2023-02-26T15:35:44.279Z,44.80
2023-02-26T15:38:17.439Z,44.80
2023-02-26T15:40:51.851Z,44.90
2023-02-26T15:43:26.537Z,45.00
2023-02-26T15:46:02.425Z,44.80
2023-02-26T15:48:38.561Z,44.80
2023-02-26T15:51:14.695Z,44.90
2023-02-26T15:53:49.245Z,45.10
2023-02-26T15:56:24.398Z,45.00
2023-02-26T15:58:59.586Z,45.20
2023-02-26T16:01:36.787Z,45.60
2023-02-26T16:04:13.811Z,45.60
2023-02-26T16:06:49.268Z,45.60
2023-02-26T16:09:26.795Z,45.60
2023-02-26T16:12:01.928Z,45.60
2023-02-26T16:14:37.758Z,45.60
2023-02-26T16:17:13.037Z,45.60
2023-02-26T16:19:48.477Z,45.60
2023-02-26T16:22:25.390Z,45.60
2023-02-26T16:25:00.214Z,45.60
2023-02-26T16:27:34.376Z,45.50
2023-02-26T16:30:10.143Z,45.40
2023-02-26T16:32:45.213Z,45.50
2023-02-26T16:35:21.531Z,45.40
2023-02-26T16:37:56.116Z,45.60
2023-02-26T16:40:34.097Z,45.50
2023-02-26T16:43:07.984Z,45.50
2023-02-26T16:45:51.221Z,45.50
2023-02-26T16:48:26.842Z,45.50
2023-02-26T16:51:01.621Z,45.50
2023-02-26T16:53:37.480Z,45.70
2023-02-26T16:56:16.721Z,45.70
2023-02-26T16:58:51.146Z,45.90
2023-02-26T17:01:24.923Z,45.90
2023-02-26T17:04:01.201Z,45.80
2023-02-26T17:06:39.053Z,45.80
2023-02-26T17:09:26.310Z,45.80
2023-02-26T17:12:05.809Z,45.90
2023-02-26T17:14:41.018Z,45.70
2023-02-26T17:17:14.142Z,45.80
2023-02-26T17:19:47.259Z,45.70
2023-02-26T17:22:28.327Z,45.70
2023-02-26T17:25:02.806Z,45.50
2023-02-26T17:27:37.439Z,45.50
2023-02-26T17:30:13.852Z,45.50
2023-02-26T17:32:47.234Z,45.30
2023-02-26T17:35:20.556Z,45.40
2023-02-26T17:37:54.097Z,45.00
2023-02-26T17:40:29.653Z,45.10
2023-02-26T17:43:03.829Z,45.20
2023-02-26T17:45:37.624Z,45.20
2023-02-26T17:48:12.466Z,45.20
2023-02-26T17:50:47.170Z,45.30
2023-02-26T17:53:21.223Z,45.20
2023-02-26T17:55:56.632Z,45.30
2023-02-26T17:58:30.677Z,45.30
2023-02-26T18:01:04.565Z,45.30
2023-02-26T18:03:39.839Z,45.30
2023-02-26T18:06:14.993Z,45.20
2023-02-26T18:08:48.668Z,45.20
2023-02-26T18:11:25.980Z,45.10
2023-02-26T18:13:59.629Z,45.00
2023-02-26T18:16:35.950Z,44.60
2023-02-26T18:19:09.467Z,44.90
2023-02-26T18:21:42.539Z,44.90
2023-02-26T18:24:15.944Z,45.00
2023-02-26T18:26:51.431Z,45.00
2023-02-26T18:29:24.501Z,44.70
2023-02-26T18:32:00.417Z,44.80
2023-02-26T18:34:33.784Z,44.70
2023-02-26T18:37:06.935Z,44.60
2023-02-26T18:39:40.055Z,44.30
2023-02-26T18:42:19.684Z,44.40
2023-02-26T18:44:53.157Z,44.40
2023-02-26T18:47:26.261Z,44.60
2023-02-26T18:49:59.363Z,44.60
2023-02-26T18:52:32.481Z,44.40
2023-02-26T18:55:06.207Z,44.70
2023-02-26T18:57:42.402Z,44.80
2023-02-26T19:00:15.779Z,44.80
2023-02-26T19:02:48.877Z,44.80
2023-02-26T19:05:23.471Z,44.80
2023-02-26T19:07:56.618Z,44.70
2023-02-26T19:10:31.483Z,44.50
2023-02-26T19:13:06.309Z,44.80
2023-02-26T19:15:39.488Z,44.80
2023-02-26T19:18:12.711Z,45.00
2023-02-26T19:20:45.966Z,45.10
2023-02-26T19:23:19.626Z,45.10
2023-02-26T19:25:53.046Z,45.70
2023-02-26T19:28:27.556Z,45.60
2023-02-26T19:31:00.967Z,45.60
2023-02-26T19:33:34.233Z,46.30
2023-02-26T19:36:07.877Z,46.30
2023-02-26T19:38:41.134Z,46.50
2023-02-26T19:41:14.240Z,46.70
2023-02-26T19:43:48.775Z,46.80
2023-02-26T19:46:22.119Z,46.90
2023-02-26T19:48:55.211Z,47.10
2023-02-26T19:51:28.735Z,47.10
2023-02-26T19:54:02.229Z,47.20
2023-02-26T19:56:35.469Z,47.20
2023-02-26T19:59:10.349Z,47.40
2023-02-26T20:01:44.011Z,47.50
2023-02-26T20:04:17.260Z,47.60
2023-02-26T20:06:50.640Z,47.60
2023-02-26T20:09:24.230Z,47.60
2023-02-26T20:11:57.463Z,47.70
2023-02-26T20:14:31.936Z,47.80
2023-02-26T20:17:05.283Z,47.60
2023-02-26T20:19:38.580Z,47.80
2023-02-26T20:22:11.728Z,47.80
2023-02-26T20:24:44.805Z,47.80
2023-02-26T20:27:17.890Z,48.00
2023-02-26T20:29:52.393Z,48.00
2023-02-26T20:32:26.171Z,48.10
2023-02-26T20:34:59.336Z,47.90
2023-02-26T20:37:32.446Z,48.10
2023-02-26T20:40:06.240Z,48.20
2023-02-26T20:42:39.457Z,48.30
2023-02-26T20:45:14.364Z,48.30
2023-02-26T20:47:47.443Z,48.20
2023-02-26T20:50:20.609Z,48.30
2023-02-26T20:52:53.702Z,48.20
2023-02-26T20:55:26.785Z,48.30
2023-02-26T20:58:00.148Z,48.50
2023-02-26T21:00:34.703Z,48.40
2023-02-26T21:03:08.241Z,48.40
2023-02-26T21:05:41.802Z,48.60
2023-02-26T21:08:14.913Z,48.40
2023-02-26T21:10:50.152Z,48.50
2023-02-26T21:13:23.429Z,48.70
2023-02-26T21:15:58.146Z,48.70
2023-02-26T21:18:31.252Z,48.70
2023-02-26T21:21:04.910Z,48.70
2023-02-26T21:23:38.153Z,48.70
2023-02-26T21:26:11.383Z,48.70
2023-02-26T21:28:47.040Z,48.90
2023-02-26T21:31:24.860Z,49.00
2023-02-26T21:33:58.602Z,48.60
2023-02-26T21:36:32.750Z,48.30
2023-02-26T21:39:05.847Z,48.30
2023-02-26T21:41:38.949Z,48.50
2023-02-26T21:44:12.465Z,48.80
2023-02-26T21:46:46.948Z,48.80
2023-02-26T21:49:20.063Z,48.80
2023-02-26T21:51:53.571Z,48.80
2023-02-26T21:54:26.708Z,49.00
2023-02-26T21:57:00.225Z,49.00
2023-02-26T21:59:33.411Z,49.10
2023-02-26T22:02:08.044Z,49.20
2023-02-26T22:04:42.082Z,49.30
2023-02-26T22:07:15.354Z,49.30
2023-02-26T22:09:49.108Z,49.50
2023-02-26T22:12:22.301Z,49.40
2023-02-26T22:14:55.371Z,49.30
2023-02-26T22:17:31.168Z,49.10
2023-02-26T22:20:09.827Z,48.90
2023-02-26T22:22:43.135Z,48.70
2023-02-26T22:25:16.238Z,48.50
2023-02-26T22:27:49.358Z,48.40
2023-02-26T22:30:22.637Z,48.30
2023-02-26T22:32:57.153Z,48.20
2023-02-26T22:35:30.393Z,48.20
2023-02-26T22:38:03.446Z,48.20
2023-02-26T22:40:37.156Z,48.20
2023-02-26T22:43:10.316Z,48.00
2023-02-26T22:45:43.427Z,48.00
2023-02-26T22:48:18.519Z,47.90
2023-02-26T22:50:51.730Z,47.90
2023-02-26T22:53:24.801Z,48.00
2023-02-26T22:55:58.338Z,47.90
2023-02-26T22:58:31.413Z,47.90
2023-02-26T23:01:05.571Z,47.80
2023-02-26T23:03:40.080Z,47.90
2023-02-26T23:06:13.492Z,47.80
2023-02-26T23:08:46.594Z,47.80
2023-02-26T23:11:19.736Z,47.80
2023-02-26T23:13:52.823Z,47.70
2023-02-26T23:16:25.897Z,47.70
2023-02-26T23:19:00.376Z,47.70
2023-02-26T23:21:33.467Z,47.70
2023-02-26T23:24:06.651Z,47.70
2023-02-26T23:26:39.722Z,47.80
2023-02-26T23:29:12.769Z,47.70
2023-02-26T23:31:46.176Z,47.60
2023-02-26T23:34:21.089Z,47.70
2023-02-26T23:36:54.151Z,47.70
2023-02-26T23:39:28.508Z,47.60
2023-02-26T23:42:01.579Z,47.60
2023-02-26T23:44:34.654Z,47.60
2023-02-26T23:47:07.765Z,47.60
2023-02-26T23:49:42.177Z,47.70
2023-02-26T23:52:15.249Z,47.70
2023-02-26T23:54:48.319Z,47.70
2023-02-26T23:57:21.366Z,47.70
2023-02-26T23:59:54.475Z,47.80
